Kowloon, China
Current Conditions -  °F | °C
As of 12:00 AM on Friday 19 Dec 2014 (Local Time) from VHHH Reporting Station
Light Rain Light Rain  
Wind Chill: 57°   Ceiling: Unl
Heat Index: 57°   Visibility: 6mi
Dew Point: 43°   Wind: 5mph
Humidity: 59%   Direction: 150°SSE
Pressure: 30.3"   Gusts: NA
Location:  22.31°N, 114.18°E
Report Text: VHHH 181600Z 15004KT 130V210 9999 -RA FEW035 14/06 Q1026 NOSIG
Loading
Personal Weather Stations






























Interactive Weather Map New forecast layout! Learn more

10-Day Weather Forecast

Advertisements
Track Severe Weather on mobile